createdAt,value
2023-01-11T00:00:46.788Z,2.03
2023-01-11T00:03:15.218Z,2.07
2023-01-11T00:05:44.073Z,3.95
2023-01-11T00:08:12.331Z,3.25
2023-01-11T00:10:40.762Z,2.17
2023-01-11T00:13:08.244Z,2.92
2023-01-11T00:15:36.600Z,2.43
2023-01-11T00:18:04.586Z,2.80
2023-01-11T00:20:32.594Z,1.80
2023-01-11T00:23:00.276Z,3.00
2023-01-11T00:25:28.228Z,3.75
2023-01-11T00:27:55.752Z,2.27
2023-01-11T00:30:23.431Z,3.58
2023-01-11T00:32:56.295Z,2.35
2023-01-11T00:35:24.634Z,2.50
2023-01-11T00:37:55.227Z,3.22
2023-01-11T00:40:24.104Z,2.03
2023-01-11T00:43:10.736Z,2.60
2023-01-11T00:45:57.328Z,4.43
2023-01-11T00:48:25.199Z,2.30
2023-01-11T00:50:55.568Z,2.25
2023-01-11T00:53:23.123Z,2.73
2023-01-11T00:55:50.933Z,2.50
2023-01-11T00:58:18.415Z,2.25
2023-01-11T01:00:45.983Z,2.62
2023-01-11T01:03:13.745Z,3.55
2023-01-11T01:05:41.244Z,3.87
2023-01-11T01:08:08.909Z,2.72
2023-01-11T01:10:36.726Z,2.92
2023-01-11T01:13:22.861Z,2.08
2023-01-11T01:15:57.329Z,1.85
2023-01-11T01:18:24.838Z,3.10
2023-01-11T01:20:52.594Z,4.10
2023-01-11T01:23:20.097Z,3.17
2023-01-11T01:25:47.585Z,2.70
2023-01-11T01:28:15.387Z,3.50
2023-01-11T01:30:42.851Z,3.63
2023-01-11T01:33:10.358Z,2.83
2023-01-11T01:35:38.620Z,4.60
2023-01-11T01:38:06.213Z,5.53
2023-01-11T01:40:33.757Z,3.95
2023-01-11T01:43:01.508Z,4.57
2023-01-11T01:45:29.044Z,3.20
2023-01-11T01:48:01.822Z,2.40
2023-01-11T01:50:37.363Z,4.20
2023-01-11T01:53:29.994Z,8.00
2023-01-11T01:56:01.580Z,2.87
2023-01-11T01:58:40.815Z,4.47
2023-01-11T02:01:27.305Z,6.85
2023-01-11T02:03:55.325Z,3.28
2023-01-11T02:06:23.957Z,4.12
2023-01-11T02:09:02.388Z,7.30
2023-01-11T02:11:30.918Z,3.83
2023-01-11T02:14:06.663Z,5.50
2023-01-11T02:16:34.789Z,6.57
2023-01-11T02:19:02.367Z,3.95
2023-01-11T02:22:31.566Z,3.27
2023-01-11T02:25:50.369Z,3.40
2023-01-11T02:28:46.296Z,7.15
2023-01-11T02:31:22.825Z,3.62
2023-01-11T02:34:18.282Z,4.30
2023-01-11T02:36:48.947Z,6.53
2023-01-11T02:39:30.215Z,3.97
2023-01-11T02:42:27.363Z,3.97
2023-01-11T02:45:11.773Z,4.00
2023-01-11T02:48:03.983Z,4.45
2023-01-11T02:50:59.206Z,2.23
2023-01-11T02:53:39.539Z,2.28
2023-01-11T02:56:12.626Z,2.70
2023-01-11T02:58:44.113Z,2.28
2023-01-11T03:01:13.353Z,4.20
2023-01-11T03:03:41.120Z,4.20
2023-01-11T03:06:14.056Z,3.37
2023-01-11T03:08:56.736Z,4.07
2023-01-11T03:12:20.023Z,4.00
2023-01-11T03:15:08.017Z,3.08
2023-01-11T03:18:03.798Z,2.53
2023-01-11T03:20:37.664Z,3.83
2023-01-11T03:23:24.534Z,2.95
2023-01-11T03:26:21.197Z,1.80
2023-01-11T03:28:57.465Z,2.42
2023-01-11T03:31:37.023Z,2.87
2023-01-11T03:34:24.180Z,2.83
2023-01-11T03:36:57.054Z,2.12
2023-01-11T03:39:28.846Z,3.47
2023-01-11T03:42:00.557Z,3.28
2023-01-11T03:44:34.211Z,2.50
2023-01-11T03:47:06.998Z,3.35
2023-01-11T03:49:57.027Z,1.95
2023-01-11T03:52:31.289Z,3.80
2023-01-11T03:55:00.097Z,4.20
2023-01-11T03:57:39.786Z,2.27
2023-01-11T04:00:08.863Z,2.35
2023-01-11T04:02:40.810Z,4.72
2023-01-11T04:05:09.996Z,2.42
2023-01-11T04:07:37.953Z,3.25
2023-01-11T04:10:06.469Z,1.93
2023-01-11T04:12:34.142Z,1.67
2023-01-11T04:15:03.294Z,3.20
2023-01-11T04:17:32.158Z,3.65
2023-01-11T04:19:59.627Z,3.15
2023-01-11T04:22:27.406Z,3.33
2023-01-11T04:24:54.885Z,4.03
2023-01-11T04:27:22.374Z,2.62
2023-01-11T04:29:50.131Z,2.92
2023-01-11T04:32:17.584Z,2.42
2023-01-11T04:34:45.068Z,3.87
2023-01-11T04:37:12.949Z,5.85
2023-01-11T04:39:40.418Z,3.10
2023-01-11T04:42:20.357Z,1.00
2023-01-11T04:44:51.759Z,3.15
2023-01-11T04:47:21.568Z,4.43
2023-01-11T04:49:49.937Z,1.75
2023-01-11T04:52:19.855Z,4.60
2023-01-11T04:54:48.799Z,2.90
2023-01-11T04:57:17.609Z,2.72
2023-01-11T04:59:48.075Z,3.57
2023-01-11T05:02:16.677Z,1.77
2023-01-11T05:04:44.419Z,2.70
2023-01-11T05:07:12.094Z,2.78
2023-01-11T05:09:40.905Z,2.03
2023-01-11T05:12:08.528Z,1.83
2023-01-11T05:14:36.017Z,2.60
2023-01-11T05:17:03.814Z,4.12
2023-01-11T05:19:31.361Z,1.98
2023-01-11T05:21:58.864Z,2.00
2023-01-11T05:24:26.706Z,3.43
2023-01-11T05:26:54.237Z,3.03
2023-01-11T05:29:21.989Z,3.20
2023-01-11T05:31:50.025Z,3.75
2023-01-11T05:34:18.616Z,3.45
2023-01-11T05:36:46.763Z,5.43
2023-01-11T05:39:14.976Z,3.20
2023-01-11T05:41:42.844Z,2.62
2023-01-11T05:44:32.335Z,2.22
2023-01-11T05:47:00.367Z,2.00
2023-01-11T05:49:27.917Z,2.57
2023-01-11T05:51:55.699Z,3.90
2023-01-11T05:54:23.609Z,2.37
2023-01-11T05:56:51.114Z,2.45
2023-01-11T05:59:18.856Z,2.60
2023-01-11T06:01:46.957Z,1.87
2023-01-11T06:04:14.761Z,4.20
2023-01-11T06:06:42.303Z,3.35
2023-01-11T06:09:09.899Z,2.28
2023-01-11T06:11:37.712Z,2.05
2023-01-11T06:14:05.217Z,4.80
2023-01-11T06:16:32.828Z,5.57
2023-01-11T06:19:00.624Z,1.55
2023-01-11T06:21:28.097Z,1.90
2023-01-11T06:23:55.674Z,2.12
2023-01-11T06:26:23.695Z,2.53
2023-01-11T06:28:51.487Z,3.10
2023-01-11T06:31:19.473Z,4.30
2023-01-11T06:33:47.623Z,1.75
2023-01-11T06:36:16.272Z,2.45
2023-01-11T06:38:44.685Z,2.43
2023-01-11T06:41:13.583Z,1.60
2023-01-11T06:43:42.360Z,1.52
2023-01-11T06:46:12.379Z,2.78
2023-01-11T06:48:40.385Z,2.85
2023-01-11T06:51:10.990Z,2.67
2023-01-11T06:53:39.171Z,2.03
2023-01-11T06:56:08.039Z,2.50
2023-01-11T06:58:35.532Z,4.30
2023-01-11T07:01:03.156Z,2.55
2023-01-11T07:03:31.273Z,3.40
2023-01-11T07:05:58.961Z,1.73
2023-01-11T07:08:26.763Z,2.70
2023-01-11T07:10:54.976Z,4.78
2023-01-11T07:13:22.945Z,2.08
2023-01-11T07:15:54.100Z,3.00
2023-01-11T07:18:22.034Z,1.92
2023-01-11T07:20:51.359Z,3.22
2023-01-11T07:23:18.926Z,3.12
2023-01-11T07:25:48.683Z,4.28
2023-01-11T07:28:16.311Z,2.47
2023-01-11T07:30:59.974Z,1.83
2023-01-11T07:33:28.144Z,4.53
2023-01-11T07:35:55.743Z,3.10
2023-01-11T07:38:23.658Z,3.33
2023-01-11T07:40:51.663Z,1.93
2023-01-11T07:43:21.563Z,2.70
2023-01-11T07:45:51.182Z,3.60
2023-01-11T07:48:28.230Z,1.73
2023-01-11T07:50:55.813Z,3.22
2023-01-11T07:53:26.247Z,3.97
2023-01-11T07:55:56.708Z,3.42
2023-01-11T07:58:24.903Z,3.45
2023-01-11T08:00:52.805Z,3.45
2023-01-11T08:03:20.922Z,5.10
2023-01-11T08:05:52.829Z,2.43
2023-01-11T08:08:20.932Z,2.70
2023-01-11T08:11:09.042Z,3.35
2023-01-11T08:13:55.531Z,1.80
2023-01-11T08:16:23.298Z,2.87
2023-01-11T08:18:52.690Z,2.80
2023-01-11T08:21:21.466Z,3.70
2023-01-11T08:23:48.998Z,2.17
2023-01-11T08:26:18.133Z,1.35
2023-01-11T08:28:46.563Z,3.03
2023-01-11T08:31:14.119Z,2.23
2023-01-11T08:33:42.021Z,2.47
2023-01-11T08:36:11.264Z,5.20
2023-01-11T08:38:39.969Z,2.75
2023-01-11T08:41:10.862Z,1.83
2023-01-11T08:43:39.156Z,4.37
2023-01-11T08:46:10.408Z,2.10
2023-01-11T08:48:38.825Z,2.53
2023-01-11T08:51:06.446Z,3.65
2023-01-11T08:53:34.106Z,4.35
2023-01-11T08:56:02.105Z,2.73
2023-01-11T08:58:29.664Z,2.33
2023-01-11T09:01:02.816Z,2.95
2023-01-11T09:03:31.785Z,3.72
2023-01-11T09:05:59.328Z,3.00
2023-01-11T09:08:28.278Z,3.20
2023-01-11T09:10:56.768Z,3.53
2023-01-11T09:13:24.247Z,2.83
2023-01-11T09:15:55.889Z,1.85
2023-01-11T09:18:26.832Z,1.85
2023-01-11T09:20:54.904Z,4.23
2023-01-11T09:23:22.379Z,3.33
2023-01-11T09:25:50.202Z,2.30
2023-01-11T09:28:17.780Z,3.53
2023-01-11T09:30:45.315Z,3.70
2023-01-11T09:33:13.125Z,2.70
2023-01-11T09:35:42.701Z,3.92
2023-01-11T09:38:10.193Z,3.08
2023-01-11T09:40:57.256Z,3.92
2023-01-11T09:43:28.694Z,2.83
2023-01-11T09:46:00.915Z,2.60
2023-01-11T09:48:43.480Z,2.78
2023-01-11T09:51:16.684Z,2.65
2023-01-11T09:53:49.595Z,4.22
2023-01-11T09:56:25.614Z,3.72
2023-01-11T09:59:00.221Z,5.00
2023-01-11T10:01:33.831Z,2.72
2023-01-11T10:04:37.480Z,5.87
2023-01-11T10:07:17.262Z,2.60
2023-01-11T10:18:26.164Z,6.55
2023-01-11T10:19:39.489Z,4.75
2023-01-11T10:22:32.510Z,4.43
2023-01-11T10:25:03.501Z,2.65
2023-01-11T10:27:39.205Z,3.83
2023-01-11T10:30:42.673Z,6.07
2023-01-11T10:33:34.429Z,5.47
2023-01-11T10:36:43.285Z,4.32
2023-01-11T10:39:46.906Z,2.25
2023-01-11T10:42:28.750Z,3.23
2023-01-11T10:45:00.232Z,4.25
2023-01-11T10:47:39.232Z,3.90
2023-01-11T10:50:33.688Z,4.70
2023-01-11T10:53:28.260Z,5.82
2023-01-11T10:56:20.279Z,4.90
2023-01-11T10:58:57.943Z,3.08
2023-01-11T11:02:08.303Z,3.08
2023-01-11T11:04:35.866Z,3.00
2023-01-11T11:07:13.148Z,2.90
2023-01-11T11:10:01.447Z,4.80
2023-01-11T11:12:33.421Z,5.78
2023-01-11T11:15:43.552Z,4.55
2023-01-11T11:18:11.496Z,5.12
2023-01-11T11:20:39.335Z,3.47
2023-01-11T11:23:06.855Z,3.00
2023-01-11T11:25:42.031Z,4.22
2023-01-11T11:28:22.703Z,2.78
2023-01-11T11:30:55.709Z,3.53
2023-01-11T11:33:28.388Z,3.47
2023-01-11T11:36:04.794Z,3.43
2023-01-11T11:38:40.938Z,4.32
2023-01-11T11:41:13.287Z,3.50
2023-01-11T11:43:47.009Z,3.60
2023-01-11T11:46:18.945Z,4.03
2023-01-11T11:49:18.085Z,4.40
2023-01-11T11:51:48.263Z,7.15
2023-01-11T11:54:19.092Z,5.25
2023-01-11T11:56:47.655Z,3.85
2023-01-11T11:59:20.790Z,3.12
2023-01-11T12:01:56.453Z,4.17
2023-01-11T12:04:37.588Z,3.40
2023-01-11T12:07:07.073Z,6.15
2023-01-11T12:09:36.571Z,3.75
2023-01-11T12:12:04.608Z,2.92
2023-01-11T12:14:35.254Z,2.57
2023-01-11T12:17:24.113Z,3.58
2023-01-11T12:19:51.836Z,3.28
2023-01-11T12:22:23.057Z,2.78
2023-01-11T12:25:25.235Z,4.68
2023-01-11T12:28:13.525Z,3.33
2023-01-11T12:31:21.408Z,2.92
2023-01-11T12:34:04.153Z,2.50
2023-01-11T12:37:16.773Z,2.45
2023-01-11T12:39:53.586Z,2.78
2023-01-11T12:43:09.112Z,3.53
2023-01-11T12:46:00.159Z,4.07
2023-01-11T12:48:27.761Z,3.42
2023-01-11T12:51:17.145Z,3.35
2023-01-11T12:53:50.623Z,4.32
2023-01-11T12:56:55.732Z,2.93
2023-01-11T12:59:35.468Z,3.10
2023-01-11T13:02:42.733Z,3.45
2023-01-11T13:05:52.448Z,3.10
2023-01-11T13:08:58.587Z,3.30
2023-01-11T13:11:52.431Z,4.67
2023-01-11T13:14:54.851Z,2.53
2023-01-11T13:17:28.007Z,3.22
2023-01-11T13:20:18.841Z,3.50
2023-01-11T13:22:50.773Z,2.95
2023-01-11T13:25:30.289Z,2.90
2023-01-11T13:28:02.874Z,2.35
2023-01-11T13:30:31.919Z,2.03
2023-01-11T13:33:12.764Z,2.65
2023-01-11T13:35:49.939Z,3.42
2023-01-11T13:38:40.907Z,4.13
2023-01-11T13:41:14.406Z,2.62
2023-01-11T13:43:56.399Z,3.03
2023-01-11T13:46:30.170Z,3.47
2023-01-11T13:49:05.093Z,3.42
2023-01-11T13:52:00.464Z,3.03
2023-01-11T13:55:00.993Z,3.22
2023-01-11T13:57:47.010Z,3.05
2023-01-11T14:00:24.099Z,3.40
2023-01-11T14:03:00.420Z,2.28
2023-01-11T14:05:39.745Z,3.33
2023-01-11T14:08:16.880Z,3.97
2023-01-11T14:11:37.825Z,3.33
2023-01-11T14:14:14.520Z,3.58
2023-01-11T14:17:00.473Z,4.55
2023-01-11T14:19:38.244Z,2.80
2023-01-11T14:22:14.572Z,3.12
2023-01-11T14:24:54.285Z,2.80
2023-01-11T14:27:36.922Z,3.67
2023-01-11T14:30:16.840Z,2.65
2023-01-11T14:33:07.140Z,4.83
2023-01-11T14:35:56.269Z,4.35
2023-01-11T14:38:45.359Z,2.67
2023-01-11T14:41:28.451Z,5.68
2023-01-11T14:44:17.713Z,3.30
2023-01-11T14:47:01.476Z,3.90
2023-01-11T14:49:50.268Z,5.40
2023-01-11T14:52:38.499Z,2.83
2023-01-11T14:55:25.825Z,2.62
2023-01-11T14:57:56.332Z,3.83
2023-01-11T15:00:23.815Z,2.70
2023-01-11T15:03:00.516Z,3.10
2023-01-11T15:05:31.556Z,3.17
2023-01-11T15:08:14.376Z,3.15
2023-01-11T15:11:00.949Z,5.43
2023-01-11T15:13:43.303Z,3.73
2023-01-11T15:16:40.849Z,6.28
2023-01-11T15:19:13.007Z,3.37
2023-01-11T15:21:49.966Z,3.53
2023-01-11T15:24:24.836Z,4.30
2023-01-11T15:26:53.861Z,3.00
2023-01-11T15:29:30.272Z,3.17
2023-01-11T15:32:01.118Z,3.33
2023-01-11T15:34:31.455Z,3.08
2023-01-11T15:37:03.430Z,3.80
2023-01-11T15:39:37.584Z,3.53
2023-01-11T15:42:17.529Z,4.30
2023-01-11T15:45:04.718Z,3.42
2023-01-11T15:48:00.221Z,3.22
2023-01-11T15:50:46.518Z,4.87
2023-01-11T15:53:17.155Z,2.30
2023-01-11T15:56:02.641Z,4.72
2023-01-11T15:58:48.931Z,6.65
2023-01-11T16:01:28.571Z,5.18
2023-01-11T16:04:18.127Z,6.45
2023-01-11T16:06:59.199Z,6.83
2023-01-11T16:10:09.952Z,9.43
2023-01-11T16:12:53.221Z,4.93
2023-01-11T16:15:55.468Z,4.28
2023-01-11T16:18:28.049Z,5.43
2023-01-11T16:21:04.862Z,5.90
2023-01-11T16:23:34.264Z,6.72
2023-01-11T16:26:03.208Z,5.20
2023-01-11T16:28:30.804Z,4.28
2023-01-11T16:31:05.175Z,6.05
2023-01-11T16:33:34.832Z,5.37
2023-01-11T16:36:21.102Z,7.07
2023-01-11T16:39:09.862Z,4.57
2023-01-11T16:41:51.149Z,4.55
2023-01-11T16:44:33.361Z,4.05
2023-01-11T16:47:03.856Z,4.00
2023-01-11T16:49:32.185Z,6.53
2023-01-11T16:52:00.659Z,4.12
2023-01-11T16:54:31.935Z,18.12
2023-01-11T16:57:01.699Z,18.35
2023-01-11T16:59:30.924Z,16.57
2023-01-11T17:02:00.997Z,15.48
2023-01-11T17:04:34.400Z,14.05
2023-01-11T17:07:15.117Z,13.55
2023-01-11T17:09:43.969Z,11.52
2023-01-11T17:12:26.260Z,11.07
2023-01-11T17:15:11.407Z,12.85
2023-01-11T17:17:39.310Z,10.05
2023-01-11T17:20:20.513Z,15.05
2023-01-11T17:22:53.632Z,12.32
2023-01-11T17:25:44.064Z,13.57
2023-01-11T17:28:18.405Z,13.48
2023-01-11T17:30:50.575Z,15.27
2023-01-11T17:33:32.720Z,19.98
2023-01-11T17:36:02.297Z,14.93
2023-01-11T17:38:30.431Z,15.53
2023-01-11T17:40:58.844Z,18.33
2023-01-11T17:43:47.277Z,17.33
2023-01-11T17:46:27.556Z,17.23
2023-01-11T17:48:59.681Z,15.07
2023-01-11T17:51:33.701Z,13.17
2023-01-11T17:54:01.594Z,15.52
2023-01-11T17:56:39.286Z,15.68
2023-01-11T17:59:24.877Z,14.02
2023-01-11T18:01:59.567Z,18.92
2023-01-11T18:04:28.467Z,18.83
2023-01-11T18:07:06.844Z,17.83
2023-01-11T18:09:40.359Z,22.50
2023-01-11T18:12:19.489Z,22.20
2023-01-11T18:14:47.226Z,24.27
2023-01-11T18:17:33.154Z,27.20
2023-01-11T18:20:22.602Z,28.87
2023-01-11T18:23:08.112Z,25.35
2023-01-11T18:25:36.111Z,24.20
2023-01-11T18:28:19.191Z,28.50
2023-01-11T18:30:56.666Z,23.13
2023-01-11T18:33:27.591Z,25.25
2023-01-11T18:35:58.202Z,26.98
2023-01-11T18:38:30.867Z,25.52
2023-01-11T18:41:25.504Z,29.00
2023-01-11T18:43:54.836Z,25.63
2023-01-11T18:46:22.940Z,27.65
2023-01-11T18:48:51.962Z,32.65
2023-01-11T18:51:28.217Z,38.25
2023-01-11T18:53:56.199Z,30.42
2023-01-11T18:56:23.750Z,28.30
2023-01-11T18:58:51.287Z,29.67
2023-01-11T19:01:19.337Z,28.00
2023-01-11T19:03:46.913Z,29.00
2023-01-11T19:06:15.188Z,31.00
2023-01-11T19:08:42.956Z,29.17
2023-01-11T19:11:10.511Z,24.25
2023-01-11T19:13:38.051Z,23.65
2023-01-11T19:16:06.449Z,28.08
2023-01-11T19:18:35.385Z,23.73
2023-01-11T19:21:06.553Z,26.63
2023-01-11T19:23:34.389Z,26.77
2023-01-11T19:26:02.278Z,28.70
2023-01-11T19:28:30.428Z,29.92
2023-01-11T19:30:58.354Z,26.75
2023-01-11T19:33:25.955Z,24.90
2023-01-11T19:35:53.440Z,34.05
2023-01-11T19:38:21.341Z,32.58
2023-01-11T19:40:50.432Z,29.92
2023-01-11T19:43:18.265Z,39.63
2023-01-11T19:45:55.240Z,48.03
2023-01-11T19:48:23.057Z,49.67
2023-01-11T19:50:51.033Z,52.13
2023-01-11T19:53:18.606Z,48.85
2023-01-11T19:55:46.071Z,41.33
2023-01-11T19:58:13.889Z,31.07
2023-01-11T20:00:41.500Z,27.35
2023-01-11T20:03:09.545Z,30.05
2023-01-11T20:05:37.178Z,23.38
2023-01-11T20:08:05.608Z,27.98
2023-01-11T20:10:34.227Z,28.20
2023-01-11T20:13:01.721Z,27.65
2023-01-11T20:15:29.268Z,26.45
2023-01-11T20:17:57.092Z,41.15
2023-01-11T20:20:25.120Z,48.10
2023-01-11T20:22:52.713Z,38.23
2023-01-11T20:25:20.551Z,40.50
2023-01-11T20:27:48.092Z,36.20
2023-01-11T20:30:15.924Z,33.35
2023-01-11T20:32:43.732Z,32.22
2023-01-11T20:35:11.250Z,39.00
2023-01-11T20:37:38.827Z,42.47
2023-01-11T20:40:07.171Z,48.05
2023-01-11T20:42:34.701Z,51.85
2023-01-11T20:45:02.252Z,40.90
2023-01-11T20:47:30.120Z,45.50
2023-01-11T20:49:57.563Z,39.40
2023-01-11T20:52:25.122Z,41.90
2023-01-11T20:54:52.945Z,29.33
2023-01-11T20:57:20.465Z,35.83
2023-01-11T20:59:47.937Z,25.73
2023-01-11T21:02:15.775Z,32.97
2023-01-11T21:04:43.505Z,27.67
2023-01-11T21:07:11.043Z,30.48
2023-01-11T21:09:38.858Z,39.22
2023-01-11T21:12:08.211Z,38.37
2023-01-11T21:14:36.953Z,42.45
2023-01-11T21:17:04.842Z,43.10
2023-01-11T21:19:32.484Z,39.83
2023-01-11T21:21:59.999Z,32.88
2023-01-11T21:24:27.880Z,39.50
2023-01-11T21:26:55.477Z,39.75
2023-01-11T21:29:23.364Z,36.38
2023-01-11T21:31:51.152Z,27.95
2023-01-11T21:34:18.631Z,31.90
2023-01-11T21:36:46.254Z,31.57
2023-01-11T21:39:16.495Z,33.40
2023-01-11T21:41:58.028Z,32.45
2023-01-11T21:44:34.599Z,29.37
2023-01-11T21:47:04.594Z,25.85
2023-01-11T21:49:32.674Z,30.40
2023-01-11T21:52:00.358Z,26.90
2023-01-11T21:54:27.972Z,25.80
2023-01-11T21:56:55.882Z,24.27
2023-01-11T21:59:24.540Z,29.40
2023-01-11T22:01:52.071Z,25.97
2023-01-11T22:04:20.785Z,30.17
2023-01-11T22:06:55.196Z,28.95
2023-01-11T22:09:26.849Z,29.92
2023-01-11T22:11:55.477Z,30.20
2023-01-11T22:14:23.040Z,26.77
2023-01-11T22:16:50.947Z,25.70
2023-01-11T22:19:18.608Z,22.15
2023-01-11T22:21:46.214Z,21.42
2023-01-11T22:24:14.096Z,23.40
2023-01-11T22:26:41.884Z,21.63
2023-01-11T22:29:12.691Z,23.35
2023-01-11T22:31:46.945Z,19.27
2023-01-11T22:34:15.249Z,30.90
2023-01-11T22:36:43.822Z,25.30
2023-01-11T22:39:13.225Z,27.93
2023-01-11T22:41:40.858Z,32.85
2023-01-11T22:44:09.838Z,28.87
2023-01-11T22:46:37.832Z,35.28
2023-01-11T22:49:08.743Z,34.13
2023-01-11T22:51:36.775Z,33.57
2023-01-11T22:54:04.798Z,27.17
2023-01-11T22:56:33.138Z,33.10
2023-01-11T22:59:01.389Z,23.48
2023-01-11T23:01:38.762Z,22.25
2023-01-11T23:04:10.912Z,23.17
2023-01-11T23:06:40.704Z,19.87
2023-01-11T23:09:15.522Z,22.77
2023-01-11T23:12:02.230Z,15.25
2023-01-11T23:14:33.090Z,20.55
2023-01-11T23:17:05.672Z,16.53
2023-01-11T23:19:35.501Z,17.27
2023-01-11T23:22:03.329Z,16.73
2023-01-11T23:24:31.087Z,13.40
2023-01-11T23:26:59.347Z,13.80
2023-01-11T23:29:27.033Z,10.97
2023-01-11T23:31:54.627Z,12.57
2023-01-11T23:34:22.481Z,11.38
2023-01-11T23:36:49.997Z,7.25
2023-01-11T23:39:20.845Z,13.45
2023-01-11T23:42:07.511Z,14.17
2023-01-11T23:44:35.240Z,20.83
2023-01-11T23:47:21.577Z,19.77
2023-01-11T23:49:50.913Z,10.90
2023-01-11T23:52:20.223Z,10.10
2023-01-11T23:54:48.023Z,7.90
2023-01-11T23:57:16.853Z,8.10
2023-01-11T23:59:45.156Z,8.13
